createdAt,value
2023-05-01T00:02:07.481Z,3.57
2023-05-01T00:04:35.477Z,2.77
2023-05-01T00:07:03.404Z,3.30
2023-05-01T00:09:32.195Z,4.97
2023-05-01T00:12:00.085Z,5.10
2023-05-01T00:14:29.717Z,3.13
2023-05-01T00:16:57.810Z,5.00
2023-05-01T00:19:25.948Z,2.77
2023-05-01T00:21:53.811Z,3.40
2023-05-01T00:24:21.735Z,2.57
2023-05-01T00:26:49.682Z,3.37
2023-05-01T00:29:18.103Z,4.40
2023-05-01T00:31:47.369Z,7.00
2023-05-01T00:34:15.282Z,7.37
2023-05-01T00:36:43.238Z,3.80
2023-05-01T00:39:11.499Z,3.30
2023-05-01T00:41:39.335Z,4.80
2023-05-01T00:44:07.130Z,4.30
2023-05-01T00:46:35.846Z,4.60
2023-05-01T00:49:05.796Z,3.83
2023-05-01T00:51:34.626Z,6.67
2023-05-01T00:54:03.640Z,4.33
2023-05-01T00:56:32.561Z,4.30
2023-05-01T00:59:01.128Z,5.90
2023-05-01T01:01:29.655Z,3.40
2023-05-01T01:03:57.694Z,3.73
2023-05-01T01:06:35.325Z,5.97
2023-05-01T01:09:14.509Z,5.90
2023-05-01T01:11:53.546Z,4.80
2023-05-01T01:14:38.014Z,3.87
2023-05-01T01:17:12.758Z,5.57
2023-05-01T01:20:17.439Z,5.70
2023-05-01T01:22:52.053Z,4.70
2023-05-01T01:25:56.908Z,6.40
2023-05-01T01:28:45.464Z,4.50
2023-05-01T01:31:18.539Z,7.43
2023-05-01T01:33:57.162Z,5.40
2023-05-01T01:36:39.955Z,4.80
2023-05-01T01:39:13.547Z,4.47
2023-05-01T01:41:43.928Z,5.07
2023-05-01T01:44:20.870Z,4.37
2023-05-01T01:46:52.119Z,5.20
2023-05-01T01:49:24.349Z,4.77
2023-05-01T01:51:54.602Z,4.67
2023-05-01T01:54:27.658Z,3.60
2023-05-01T01:56:58.304Z,4.57
2023-05-01T01:59:27.298Z,7.30
2023-05-01T02:01:57.137Z,3.97
2023-05-01T02:04:28.661Z,3.73
2023-05-01T02:06:58.159Z,5.03
2023-05-01T02:09:27.398Z,5.50
2023-05-01T02:11:56.309Z,4.30
2023-05-01T02:14:27.891Z,3.83
2023-05-01T02:16:57.036Z,4.70
2023-05-01T02:19:27.256Z,4.40
2023-05-01T02:21:58.315Z,5.60
2023-05-01T02:24:28.081Z,4.00
2023-05-01T02:27:01.327Z,3.93
2023-05-01T02:29:29.264Z,6.90
2023-05-01T02:31:57.356Z,5.07
2023-05-01T02:34:26.737Z,7.40
2023-05-01T02:36:54.655Z,5.23
2023-05-01T02:39:22.905Z,7.33
2023-05-01T02:41:53.358Z,4.77
2023-05-01T02:44:22.365Z,5.70
2023-05-01T02:46:51.544Z,5.70
2023-05-01T02:49:21.533Z,5.97
2023-05-01T02:51:51.084Z,4.87
2023-05-01T02:54:19.204Z,9.60
2023-05-01T02:56:47.180Z,5.80
2023-05-01T02:59:15.450Z,10.90
2023-05-01T03:01:43.344Z,12.07
2023-05-01T03:04:11.314Z,7.10
2023-05-01T03:06:39.377Z,6.90
2023-05-01T03:09:08.633Z,7.90
2023-05-01T03:11:36.450Z,8.57
2023-05-01T03:14:04.285Z,7.17
2023-05-01T03:16:32.229Z,8.07
2023-05-01T03:19:00.133Z,10.70
2023-05-01T03:21:27.946Z,8.93
2023-05-01T03:23:55.797Z,9.73
2023-05-01T03:26:25.071Z,7.60
2023-05-01T03:28:52.883Z,9.93
2023-05-01T03:31:20.667Z,10.07
2023-05-01T03:33:48.954Z,10.53
2023-05-01T03:36:17.364Z,7.50
2023-05-01T03:38:45.420Z,9.33
2023-05-01T03:41:13.234Z,9.47
2023-05-01T03:43:42.505Z,10.50
2023-05-01T03:46:10.372Z,9.60
2023-05-01T03:48:38.209Z,8.43
2023-05-01T03:51:06.548Z,7.97
2023-05-01T03:53:34.598Z,8.27
2023-05-01T03:56:04.489Z,8.03
2023-05-01T03:58:32.303Z,9.17
2023-05-01T04:01:02.880Z,9.57
2023-05-01T04:03:30.880Z,13.90
2023-05-01T04:05:59.523Z,11.70
2023-05-01T04:08:27.433Z,13.40
2023-05-01T04:10:55.317Z,10.47
2023-05-01T04:13:23.130Z,9.83
2023-05-01T04:15:51.077Z,8.70
2023-05-01T04:18:20.297Z,8.80
2023-05-01T04:20:48.161Z,9.03
2023-05-01T04:23:16.021Z,12.17
2023-05-01T04:25:43.956Z,7.17
2023-05-01T04:28:12.202Z,10.67
2023-05-01T04:30:40.205Z,6.90
2023-05-01T04:33:11.443Z,11.90
2023-05-01T04:35:41.219Z,9.20
2023-05-01T04:38:10.368Z,9.10
2023-05-01T04:40:38.200Z,8.27
2023-05-01T04:43:06.071Z,7.77
2023-05-01T04:45:34.097Z,7.47
2023-05-01T04:48:02.493Z,7.70
2023-05-01T04:50:30.341Z,9.03
2023-05-01T04:53:00.136Z,8.13
2023-05-01T04:55:30.342Z,13.03
2023-05-01T04:57:58.881Z,10.67
2023-05-01T05:00:28.028Z,8.87
2023-05-01T05:02:56.187Z,8.83
2023-05-01T05:05:24.128Z,8.10
2023-05-01T05:07:51.918Z,8.40
2023-05-01T05:10:21.366Z,12.30
2023-05-01T05:12:49.191Z,8.13
2023-05-01T05:15:17.189Z,11.40
2023-05-01T05:17:45.573Z,9.10
2023-05-01T05:20:13.640Z,12.00
2023-05-01T05:22:41.498Z,16.07
2023-05-01T05:25:10.225Z,10.17
2023-05-01T05:27:39.390Z,9.53
2023-05-01T05:30:08.357Z,9.43
2023-05-01T05:32:36.499Z,10.77
2023-05-01T05:35:04.939Z,11.50
2023-05-01T05:37:32.898Z,9.73
2023-05-01T05:40:00.734Z,10.40
2023-05-01T05:42:29.285Z,13.50
2023-05-01T05:44:58.460Z,10.30
2023-05-01T05:47:26.393Z,11.30
2023-05-01T05:49:55.690Z,8.73
2023-05-01T05:52:23.725Z,13.30
2023-05-01T05:54:51.724Z,8.40
2023-05-01T05:57:19.526Z,11.10
2023-05-01T05:59:47.375Z,10.63
2023-05-01T06:02:16.593Z,11.90
2023-05-01T06:04:44.439Z,9.37
2023-05-01T06:07:12.269Z,9.10
2023-05-01T06:09:40.447Z,9.03
2023-05-01T06:12:08.244Z,9.47
2023-05-01T06:14:36.086Z,12.53
2023-05-01T06:17:03.897Z,11.97
2023-05-01T06:19:33.068Z,14.97
2023-05-01T06:22:00.873Z,10.10
2023-05-01T06:24:29.085Z,10.80
2023-05-01T06:26:56.878Z,13.57
2023-05-01T06:29:24.665Z,16.27
2023-05-01T06:31:52.526Z,7.63
2023-05-01T06:34:20.417Z,8.10
2023-05-01T06:36:49.630Z,9.03
2023-05-01T06:39:17.460Z,8.70
2023-05-01T06:41:47.162Z,9.73
2023-05-01T06:44:15.078Z,11.80
2023-05-01T06:46:43.012Z,9.30
2023-05-01T06:49:11.245Z,13.97
2023-05-01T06:51:39.072Z,8.57
2023-05-01T06:54:08.203Z,13.57
2023-05-01T06:56:36.028Z,8.00
2023-05-01T06:59:03.948Z,8.97
2023-05-01T07:01:33.945Z,7.73
2023-05-01T07:04:03.977Z,9.30
2023-05-01T07:06:32.450Z,8.03
2023-05-01T07:09:00.344Z,10.97
2023-05-01T07:11:29.587Z,7.50
2023-05-01T07:13:57.493Z,14.13
2023-05-01T07:16:25.655Z,8.87
2023-05-01T07:18:53.710Z,10.90
2023-05-01T07:21:21.527Z,10.97
2023-05-01T07:23:49.356Z,7.23
2023-05-01T07:26:17.349Z,6.90
2023-05-01T07:28:46.546Z,7.03
2023-05-01T07:31:14.391Z,9.80
2023-05-01T07:33:42.794Z,6.13
2023-05-01T07:36:11.257Z,7.83
2023-05-01T07:38:39.052Z,6.47
2023-05-01T07:41:06.920Z,6.53
2023-05-01T07:43:35.028Z,9.77
2023-05-01T07:46:05.375Z,10.70
2023-05-01T07:48:33.794Z,7.70
2023-05-01T07:51:03.865Z,7.53
2023-05-01T07:53:31.873Z,6.63
2023-05-01T07:56:07.503Z,9.13
2023-05-01T07:58:36.033Z,5.27
2023-05-01T08:01:07.009Z,7.10
2023-05-01T08:03:34.932Z,8.20
2023-05-01T08:06:02.961Z,8.30
2023-05-01T08:08:30.967Z,8.70
2023-05-01T08:10:58.808Z,7.47
2023-05-01T08:13:26.625Z,7.97
2023-05-01T08:15:54.592Z,9.23
2023-05-01T08:18:23.755Z,8.37
2023-05-01T08:20:51.661Z,7.43
2023-05-01T08:23:19.642Z,6.57
2023-05-01T08:25:50.773Z,8.10
2023-05-01T08:28:20.661Z,5.70
2023-05-01T08:30:49.557Z,7.17
2023-05-01T08:33:17.497Z,6.83
2023-05-01T08:35:46.664Z,6.90
2023-05-01T08:38:14.476Z,6.07
2023-05-01T08:40:47.003Z,6.07
2023-05-01T08:43:15.144Z,6.60
2023-05-01T08:45:43.982Z,6.80
2023-05-01T08:48:13.250Z,5.47
2023-05-01T08:50:46.372Z,13.30
2023-05-01T08:53:18.468Z,6.63
2023-05-01T08:55:48.554Z,5.73
2023-05-01T08:58:19.563Z,6.13
2023-05-01T09:00:48.467Z,6.40
2023-05-01T09:03:17.555Z,6.03
2023-05-01T09:05:45.581Z,7.10
2023-05-01T09:08:14.994Z,5.13
2023-05-01T09:10:46.916Z,5.40
2023-05-01T09:13:14.725Z,6.73
2023-05-01T09:15:42.662Z,5.43
2023-05-01T09:18:10.667Z,7.47
2023-05-01T09:20:38.877Z,8.67
2023-05-01T09:23:07.118Z,5.33
2023-05-01T09:25:36.298Z,5.13
2023-05-01T09:28:05.936Z,4.93
2023-05-01T09:30:35.081Z,7.00
2023-05-01T09:33:10.969Z,4.83
2023-05-01T09:35:52.777Z,5.10
2023-05-01T09:38:22.339Z,6.43
2023-05-01T09:40:53.516Z,5.50
2023-05-01T09:43:28.329Z,5.50
2023-05-01T09:46:03.725Z,5.40
2023-05-01T09:48:34.832Z,5.60
2023-05-01T09:51:08.576Z,6.13
2023-05-01T09:53:39.498Z,7.47
2023-05-01T09:56:09.525Z,4.57
2023-05-01T09:58:37.538Z,5.53
2023-05-01T10:01:05.638Z,5.50
2023-05-01T10:03:34.886Z,5.63
2023-05-01T10:06:04.244Z,5.57
2023-05-01T10:08:46.281Z,4.83
2023-05-01T10:11:15.559Z,4.60
2023-05-01T10:13:43.679Z,4.80
2023-05-01T10:16:30.364Z,6.00
2023-05-01T10:18:58.570Z,4.47
2023-05-01T10:21:26.921Z,5.47
2023-05-01T10:23:55.826Z,4.27
2023-05-01T10:26:26.190Z,5.93
2023-05-01T10:28:54.123Z,4.60
2023-05-01T10:31:22.053Z,5.00
2023-05-01T10:33:50.272Z,6.43
2023-05-01T10:36:23.625Z,5.10
2023-05-01T10:38:51.732Z,8.50
2023-05-01T10:41:58.502Z,5.53
2023-05-01T10:44:28.270Z,5.80
2023-05-01T10:46:56.555Z,4.87
2023-05-01T10:49:24.409Z,6.27
2023-05-01T10:52:03.761Z,6.67
2023-05-01T10:54:32.992Z,6.83
2023-05-01T10:57:03.626Z,5.30
2023-05-01T11:00:05.326Z,4.07
2023-05-01T11:02:34.575Z,5.00
2023-05-01T11:05:03.719Z,4.50
2023-05-01T11:07:33.755Z,5.60
2023-05-01T11:10:02.177Z,4.67
2023-05-01T11:12:54.434Z,4.67
2023-05-01T11:15:32.718Z,4.53
2023-05-01T11:18:03.789Z,5.10
2023-05-01T11:20:49.312Z,5.60
2023-05-01T11:23:22.690Z,5.20
2023-05-01T11:25:53.829Z,5.03
2023-05-01T11:28:22.765Z,5.80
2023-05-01T11:30:50.747Z,5.30
2023-05-01T11:33:27.450Z,7.30
2023-05-01T11:36:03.044Z,4.93
2023-05-01T11:38:30.920Z,5.80
2023-05-01T11:41:01.803Z,6.70
2023-05-01T11:43:29.703Z,5.80
2023-05-01T11:46:02.533Z,5.57
2023-05-01T11:48:33.045Z,7.10
2023-05-01T11:51:00.949Z,5.50
2023-05-01T11:53:29.066Z,5.23
2023-05-01T11:55:56.932Z,5.73
2023-05-01T11:58:36.508Z,5.73
2023-05-01T12:01:04.703Z,7.33
2023-05-01T12:03:43.768Z,6.13
2023-05-01T12:06:13.110Z,4.90
2023-05-01T12:08:45.211Z,4.83
2023-05-01T12:11:13.406Z,4.57
2023-05-01T12:13:42.382Z,5.60
2023-05-01T12:16:11.495Z,6.70
2023-05-01T12:18:39.445Z,6.97
2023-05-01T12:21:17.155Z,6.83
2023-05-01T12:23:45.079Z,6.63
2023-05-01T12:26:19.927Z,6.70
2023-05-01T12:28:58.455Z,7.30
2023-05-01T12:31:28.313Z,7.93
2023-05-01T12:33:57.506Z,7.93
2023-05-01T12:36:28.399Z,6.37
2023-05-01T12:38:58.535Z,8.27
2023-05-01T12:41:40.616Z,6.20
2023-05-01T12:44:19.836Z,5.77
2023-05-01T12:46:55.090Z,5.60
2023-05-01T12:49:23.949Z,5.50
2023-05-01T12:51:54.314Z,6.80
2023-05-01T12:54:23.130Z,6.03
2023-05-01T12:56:53.104Z,6.00
2023-05-01T12:59:22.843Z,6.30
2023-05-01T13:01:58.019Z,6.07
2023-05-01T13:04:26.428Z,6.20
2023-05-01T13:06:56.872Z,8.57
2023-05-01T13:09:27.152Z,6.20
2023-05-01T13:12:02.438Z,9.03
2023-05-01T13:14:31.549Z,8.60
2023-05-01T13:16:59.414Z,9.70
2023-05-01T13:19:28.938Z,6.83
2023-05-01T13:21:59.006Z,9.77
2023-05-01T13:24:37.682Z,6.67
2023-05-01T13:27:06.262Z,7.03
2023-05-01T13:29:34.354Z,8.23
2023-05-01T13:32:04.457Z,6.80
2023-05-01T13:34:33.905Z,6.80
2023-05-01T13:37:03.516Z,7.00
2023-05-01T13:39:31.373Z,5.53
2023-05-01T13:41:59.225Z,6.87
2023-05-01T13:44:28.262Z,7.20
2023-05-01T13:46:56.278Z,7.10
2023-05-01T13:49:25.650Z,6.73
2023-05-01T13:51:55.427Z,7.60
2023-05-01T13:54:24.941Z,6.07
2023-05-01T13:56:53.074Z,6.13
2023-05-01T13:59:21.008Z,6.30
2023-05-01T14:01:48.939Z,6.57
2023-05-01T14:04:21.112Z,6.43
2023-05-01T14:06:49.753Z,7.43
2023-05-01T14:09:19.061Z,6.23
2023-05-01T14:11:49.249Z,8.33
2023-05-01T14:14:18.416Z,6.10
2023-05-01T14:16:48.891Z,6.70
2023-05-01T14:19:18.304Z,12.70
2023-05-01T14:21:46.860Z,7.27
2023-05-01T14:24:17.820Z,8.17
2023-05-01T14:26:49.154Z,5.33
2023-05-01T14:29:26.706Z,8.10
2023-05-01T14:31:55.458Z,6.80
2023-05-01T14:34:23.979Z,7.17
2023-05-01T14:36:51.826Z,7.10
2023-05-01T14:39:20.090Z,9.83
2023-05-01T14:41:49.577Z,10.73
2023-05-01T14:44:20.137Z,6.73
2023-05-01T14:46:51.437Z,6.30
2023-05-01T14:49:21.054Z,8.80
2023-05-01T14:51:49.521Z,10.47
2023-05-01T14:54:17.619Z,7.03
2023-05-01T14:56:46.575Z,7.10
2023-05-01T14:59:16.320Z,8.27
2023-05-01T15:01:44.820Z,6.20
2023-05-01T15:04:13.056Z,7.07
2023-05-01T15:06:40.983Z,6.07
2023-05-01T15:09:08.829Z,7.87
2023-05-01T15:11:36.733Z,9.20
2023-05-01T15:14:04.626Z,7.63
2023-05-01T15:16:33.932Z,8.23
2023-05-01T15:19:01.778Z,8.60
2023-05-01T15:21:29.583Z,8.00
2023-05-01T15:23:57.408Z,6.37
2023-05-01T15:26:25.546Z,8.73
2023-05-01T15:28:53.561Z,8.13
2023-05-01T15:31:21.410Z,7.30
2023-05-01T15:33:50.624Z,6.87
2023-05-01T15:36:18.771Z,6.83
2023-05-01T15:38:48.091Z,7.27
2023-05-01T15:41:18.746Z,8.30
2023-05-01T15:43:46.941Z,6.67
2023-05-01T15:46:16.237Z,6.57
2023-05-01T15:48:44.252Z,7.83
2023-05-01T15:51:13.622Z,7.03
2023-05-01T15:53:41.441Z,8.07
2023-05-01T15:56:10.654Z,5.30
2023-05-01T15:58:38.640Z,7.27
2023-05-01T16:01:06.658Z,7.10
2023-05-01T16:03:34.989Z,6.00
2023-05-01T16:06:04.474Z,6.70
2023-05-01T16:08:34.105Z,6.03
2023-05-01T16:11:02.016Z,5.50
2023-05-01T16:13:29.821Z,5.50
2023-05-01T16:15:57.718Z,7.40
2023-05-01T16:18:26.174Z,6.60
2023-05-01T16:20:55.252Z,6.43
2023-05-01T16:23:26.046Z,5.40
2023-05-01T16:25:55.957Z,5.43
2023-05-01T16:28:25.829Z,5.43
2023-05-01T16:30:53.695Z,4.97
2023-05-01T16:33:23.342Z,6.10
2023-05-01T16:35:51.779Z,5.17
2023-05-01T16:38:19.992Z,6.20
2023-05-01T16:40:49.028Z,5.40
2023-05-01T16:43:18.248Z,6.53
2023-05-01T16:45:47.000Z,6.37
2023-05-01T16:48:21.520Z,5.27
2023-05-01T16:50:49.422Z,5.83
2023-05-01T16:53:17.843Z,6.80
2023-05-01T16:55:45.795Z,6.00
2023-05-01T16:58:13.621Z,5.00
2023-05-01T17:00:43.253Z,6.97
2023-05-01T17:03:11.168Z,5.67
2023-05-01T17:05:39.294Z,5.53
2023-05-01T17:08:07.117Z,5.33
2023-05-01T17:10:34.948Z,5.70
2023-05-01T17:13:02.891Z,5.93
2023-05-01T17:15:30.707Z,5.63
2023-05-01T17:17:59.871Z,5.87
2023-05-01T17:20:28.462Z,5.67
2023-05-01T17:22:56.260Z,4.73
2023-05-01T17:25:24.102Z,4.63
2023-05-01T17:27:51.949Z,4.43
2023-05-01T17:30:20.099Z,4.60
2023-05-01T17:32:48.213Z,4.83
2023-05-01T17:35:18.087Z,5.80
2023-05-01T17:37:45.985Z,4.63
2023-05-01T17:40:14.245Z,6.57
2023-05-01T17:42:42.139Z,4.67
2023-05-01T17:45:11.031Z,4.60
2023-05-01T17:47:41.708Z,4.97
2023-05-01T17:50:11.949Z,5.27
2023-05-01T17:52:41.531Z,5.17
2023-05-01T17:55:10.294Z,6.00
2023-05-01T17:57:39.637Z,5.07
2023-05-01T18:00:11.027Z,5.73
2023-05-01T18:02:39.188Z,4.80
2023-05-01T18:05:07.286Z,7.30
2023-05-01T18:07:35.093Z,6.30
2023-05-01T18:10:04.614Z,5.07
2023-05-01T18:12:32.480Z,6.13
2023-05-01T18:15:00.294Z,5.47
2023-05-01T18:17:28.109Z,5.40
2023-05-01T18:19:55.999Z,5.07
2023-05-01T18:22:23.832Z,5.30
2023-05-01T18:24:51.689Z,5.00
2023-05-01T18:27:20.908Z,4.20
2023-05-01T18:29:48.770Z,4.57
2023-05-01T18:32:16.603Z,5.70
2023-05-01T18:34:45.397Z,5.53
2023-05-01T18:37:13.254Z,5.10
2023-05-01T18:39:41.079Z,4.40
2023-05-01T18:42:10.020Z,4.40
2023-05-01T18:44:39.171Z,4.30
2023-05-01T18:47:06.985Z,5.10
2023-05-01T18:49:35.096Z,4.60
2023-05-01T18:52:03.308Z,4.80
2023-05-01T18:54:31.491Z,5.07
2023-05-01T18:56:59.279Z,4.87
2023-05-01T18:59:30.885Z,6.20
2023-05-01T19:02:01.529Z,5.20
2023-05-01T19:04:30.596Z,6.03
2023-05-01T19:06:58.435Z,4.70
2023-05-01T19:09:26.278Z,5.40
2023-05-01T19:11:54.081Z,5.43
2023-05-01T19:14:22.242Z,4.73
2023-05-01T19:16:50.087Z,5.70
2023-05-01T19:19:19.498Z,5.50
2023-05-01T19:21:47.312Z,6.27
2023-05-01T19:24:15.162Z,5.90
2023-05-01T19:26:42.964Z,6.17
2023-05-01T19:29:11.205Z,5.70
2023-05-01T19:31:39.102Z,5.87
2023-05-01T19:34:07.064Z,5.33
2023-05-01T19:36:36.423Z,4.90
2023-05-01T19:39:05.348Z,5.70
2023-05-01T19:41:33.628Z,5.40
2023-05-01T19:44:01.554Z,5.43
2023-05-01T19:46:29.572Z,4.60
2023-05-01T19:48:57.584Z,5.67
2023-05-01T19:51:25.475Z,4.57
2023-05-01T19:53:54.631Z,5.10
2023-05-01T19:56:23.135Z,5.70
2023-05-01T19:58:50.968Z,5.03
2023-05-01T20:01:18.794Z,5.10
2023-05-01T20:03:46.642Z,5.70
2023-05-01T20:06:14.977Z,6.10
2023-05-01T20:08:43.040Z,5.60
2023-05-01T20:11:12.406Z,5.43
2023-05-01T20:13:40.211Z,6.20
2023-05-01T20:16:09.570Z,6.20
2023-05-01T20:18:37.441Z,5.67
2023-05-01T20:21:06.071Z,7.10
2023-05-01T20:23:34.678Z,5.17
2023-05-01T20:26:02.501Z,5.70
2023-05-01T20:28:31.666Z,4.83
2023-05-01T20:30:59.537Z,6.07
2023-05-01T20:33:27.464Z,10.40
2023-05-01T20:35:55.267Z,6.43
2023-05-01T20:38:24.186Z,6.27
2023-05-01T20:40:52.060Z,7.03
2023-05-01T20:43:19.847Z,6.90
2023-05-01T20:45:49.036Z,5.87
2023-05-01T20:48:16.899Z,6.07
2023-05-01T20:50:45.494Z,5.50
2023-05-01T20:53:13.320Z,5.80
2023-05-01T20:55:41.111Z,6.17
2023-05-01T20:58:08.950Z,5.70
2023-05-01T21:00:36.819Z,4.83
2023-05-01T21:03:06.225Z,5.20
2023-05-01T21:05:34.105Z,5.73
2023-05-01T21:08:03.165Z,5.73
2023-05-01T21:10:31.522Z,5.20
2023-05-01T21:12:59.499Z,4.47
2023-05-01T21:15:27.620Z,5.00
2023-05-01T21:17:55.851Z,5.50
2023-05-01T21:20:31.920Z,5.37
2023-05-01T21:23:00.928Z,4.93
2023-05-01T21:25:31.861Z,6.07
2023-05-01T21:28:01.886Z,5.97
2023-05-01T21:30:33.015Z,5.73
2023-05-01T21:33:01.232Z,4.87
2023-05-01T21:35:30.729Z,5.87
2023-05-01T21:37:58.663Z,5.23
2023-05-01T21:40:27.583Z,5.20
2023-05-01T21:42:56.286Z,5.50
2023-05-01T21:45:25.441Z,5.33
2023-05-01T21:47:53.375Z,5.67
2023-05-01T21:50:22.221Z,4.77
2023-05-01T21:52:51.418Z,5.10
2023-05-01T21:55:20.858Z,6.07
2023-05-01T21:57:49.817Z,5.73
2023-05-01T22:00:19.129Z,6.37
2023-05-01T22:02:48.713Z,6.00
2023-05-01T22:05:18.375Z,5.50
2023-05-01T22:07:48.309Z,5.40
2023-05-01T22:10:18.493Z,4.77
2023-05-01T22:12:46.969Z,5.67
2023-05-01T22:15:15.709Z,4.87
2023-05-01T22:17:44.179Z,5.07
2023-05-01T22:20:12.767Z,5.40
2023-05-01T22:22:42.801Z,4.80
2023-05-01T22:25:11.886Z,5.60
2023-05-01T22:27:41.727Z,5.40
2023-05-01T22:30:10.360Z,5.83
2023-05-01T22:32:38.161Z,5.60
2023-05-01T22:35:08.299Z,4.70
2023-05-01T22:37:36.127Z,5.40
2023-05-01T22:40:04.461Z,6.70
2023-05-01T22:42:32.249Z,6.03
2023-05-01T22:45:01.396Z,5.80
2023-05-01T22:47:29.223Z,6.40
2023-05-01T22:49:57.440Z,5.83
2023-05-01T22:52:25.465Z,6.03
2023-05-01T22:54:53.310Z,6.27
2023-05-01T22:57:21.130Z,6.83
2023-05-01T22:59:49.339Z,6.97
2023-05-01T23:02:18.946Z,5.30
2023-05-01T23:04:47.123Z,5.63
2023-05-01T23:07:15.353Z,5.97
2023-05-01T23:09:43.186Z,6.50
2023-05-01T23:12:16.358Z,5.70
2023-05-01T23:14:46.978Z,5.90
2023-05-01T23:17:15.223Z,7.53
2023-05-01T23:19:44.692Z,6.20
2023-05-01T23:22:13.812Z,5.80
2023-05-01T23:24:48.176Z,5.80
2023-05-01T23:27:17.230Z,7.60
2023-05-01T23:29:51.480Z,5.80
2023-05-01T23:32:25.881Z,5.80
2023-05-01T23:34:56.027Z,5.60
2023-05-01T23:37:23.841Z,6.63
2023-05-01T23:39:53.486Z,6.50
2023-05-01T23:42:22.165Z,5.90
2023-05-01T23:44:50.244Z,5.50
2023-05-01T23:47:18.294Z,5.97
2023-05-01T23:49:46.164Z,6.80
2023-05-01T23:52:15.354Z,5.67
2023-05-01T23:54:43.173Z,5.90
2023-05-01T23:57:11.300Z,6.90
2023-05-01T23:59:39.131Z,8.60
